sensor_id;sensor_type;location;lat;lon;timestamp;P1;durP1;ratioP1;P2;durP2;ratioP2
39020;SDS011;25188;51.958;5.842;2023-06-26T00:00:14;8.95;;;6.13;;
39020;SDS011;25188;51.958;5.842;2023-06-26T00:02:40;10.63;;;6.13;;
39020;SDS011;25188;51.958;5.842;2023-06-26T00:05:06;9.48;;;6.28;;
39020;SDS011;25188;51.958;5.842;2023-06-26T00:07:32;11.07;;;6.13;;
39020;SDS011;25188;51.958;5.842;2023-06-26T00:10:02;9.77;;;6.93;;
39020;SDS011;25188;51.958;5.842;2023-06-26T00:12:28;8.10;;;5.53;;
39020;SDS011;25188;51.958;5.842;2023-06-26T00:14:54;8.10;;;6.20;;
39020;SDS011;25188;51.958;5.842;2023-06-26T00:17:20;8.27;;;6.22;;
39020;SDS011;25188;51.958;5.842;2023-06-26T00:19:46;6.97;;;5.70;;
39020;SDS011;25188;51.958;5.842;2023-06-26T00:22:12;9.32;;;6.00;;
39020;SDS011;25188;51.958;5.842;2023-06-26T00:24:38;8.32;;;6.22;;
39020;SDS011;25188;51.958;5.842;2023-06-26T00:27:03;8.40;;;6.55;;
39020;SDS011;25188;51.958;5.842;2023-06-26T00:29:29;9.23;;;6.35;;
39020;SDS011;25188;51.958;5.842;2023-06-26T00:31:55;8.95;;;6.45;;
39020;SDS011;25188;51.958;5.842;2023-06-26T00:34:21;9.02;;;6.50;;
39020;SDS011;25188;51.958;5.842;2023-06-26T00:36:47;9.07;;;6.63;;
39020;SDS011;25188;51.958;5.842;2023-06-26T00:39:13;10.05;;;6.15;;
39020;SDS011;25188;51.958;5.842;2023-06-26T00:41:38;9.00;;;6.40;;
39020;SDS011;25188;51.958;5.842;2023-06-26T00:44:04;12.75;;;6.72;;
39020;SDS011;25188;51.958;5.842;2023-06-26T00:46:30;8.40;;;5.97;;
39020;SDS011;25188;51.958;5.842;2023-06-26T00:48:58;8.27;;;6.43;;
39020;SDS011;25188;51.958;5.842;2023-06-26T00:51:25;9.18;;;6.88;;
39020;SDS011;25188;51.958;5.842;2023-06-26T00:53:52;10.00;;;6.75;;
39020;SDS011;25188;51.958;5.842;2023-06-26T00:56:18;10.88;;;7.05;;
39020;SDS011;25188;51.958;5.842;2023-06-26T00:58:44;11.48;;;7.45;;
39020;SDS011;25188;51.958;5.842;2023-06-26T01:01:10;9.77;;;7.72;;
39020;SDS011;25188;51.958;5.842;2023-06-26T01:03:41;9.45;;;7.32;;
39020;SDS011;25188;51.958;5.842;2023-06-26T01:06:07;10.18;;;7.97;;
39020;SDS011;25188;51.958;5.842;2023-06-26T01:08:36;10.30;;;7.95;;
39020;SDS011;25188;51.958;5.842;2023-06-26T01:11:03;10.70;;;7.25;;
39020;SDS011;25188;51.958;5.842;2023-06-26T01:13:29;10.88;;;8.10;;
39020;SDS011;25188;51.958;5.842;2023-06-26T01:15:56;9.77;;;7.63;;
39020;SDS011;25188;51.958;5.842;2023-06-26T01:18:23;8.45;;;6.88;;
39020;SDS011;25188;51.958;5.842;2023-06-26T01:20:50;12.60;;;7.50;;
39020;SDS011;25188;51.958;5.842;2023-06-26T01:25:56;10.70;;;8.18;;
39020;SDS011;25188;51.958;5.842;2023-06-26T01:28:38;10.88;;;8.07;;
39020;SDS011;25188;51.958;5.842;2023-06-26T01:33:32;10.35;;;7.88;;
39020;SDS011;25188;51.958;5.842;2023-06-26T01:35:58;11.93;;;8.52;;
39020;SDS011;25188;51.958;5.842;2023-06-26T01:38:24;12.82;;;9.30;;
39020;SDS011;25188;51.958;5.842;2023-06-26T01:40:51;12.60;;;9.90;;
39020;SDS011;25188;51.958;5.842;2023-06-26T01:43:37;12.55;;;9.70;;
39020;SDS011;25188;51.958;5.842;2023-06-26T01:49:04;13.45;;;9.95;;
39020;SDS011;25188;51.958;5.842;2023-06-26T01:51:55;12.35;;;9.93;;
39020;SDS011;25188;51.958;5.842;2023-06-26T01:54:29;13.55;;;9.70;;
39020;SDS011;25188;51.958;5.842;2023-06-26T01:56:58;14.75;;;9.85;;
39020;SDS011;25188;51.958;5.842;2023-06-26T01:59:25;11.00;;;7.95;;
39020;SDS011;25188;51.958;5.842;2023-06-26T02:01:53;13.20;;;9.15;;
39020;SDS011;25188;51.958;5.842;2023-06-26T02:04:19;10.95;;;8.60;;
39020;SDS011;25188;51.958;5.842;2023-06-26T02:06:45;13.60;;;8.75;;
39020;SDS011;25188;51.958;5.842;2023-06-26T02:09:10;12.32;;;8.75;;
39020;SDS011;25188;51.958;5.842;2023-06-26T02:11:36;10.23;;;8.00;;
39020;SDS011;25188;51.958;5.842;2023-06-26T02:14:02;11.18;;;8.02;;
39020;SDS011;25188;51.958;5.842;2023-06-26T02:16:28;10.27;;;7.60;;
39020;SDS011;25188;51.958;5.842;2023-06-26T02:18:54;10.23;;;7.18;;
39020;SDS011;25188;51.958;5.842;2023-06-26T02:21:20;13.63;;;7.55;;
39020;SDS011;25188;51.958;5.842;2023-06-26T02:23:45;11.95;;;6.25;;
39020;SDS011;25188;51.958;5.842;2023-06-26T02:26:11;9.05;;;5.40;;
39020;SDS011;25188;51.958;5.842;2023-06-26T02:28:36;7.43;;;4.57;;
39020;SDS011;25188;51.958;5.842;2023-06-26T02:31:02;10.25;;;4.80;;
39020;SDS011;25188;51.958;5.842;2023-06-26T02:33:28;7.82;;;3.53;;
39020;SDS011;25188;51.958;5.842;2023-06-26T02:35:53;8.85;;;4.47;;
39020;SDS011;25188;51.958;5.842;2023-06-26T02:38:19;9.60;;;4.40;;
39020;SDS011;25188;51.958;5.842;2023-06-26T02:40:44;11.93;;;4.13;;
39020;SDS011;25188;51.958;5.842;2023-06-26T02:43:10;7.80;;;3.85;;
39020;SDS011;25188;51.958;5.842;2023-06-26T02:45:35;8.15;;;3.60;;
39020;SDS011;25188;51.958;5.842;2023-06-26T02:48:01;10.57;;;4.32;;
39020;SDS011;25188;51.958;5.842;2023-06-26T02:50:27;10.70;;;3.65;;
39020;SDS011;25188;51.958;5.842;2023-06-26T02:52:52;10.95;;;3.97;;
39020;SDS011;25188;51.958;5.842;2023-06-26T02:55:18;12.57;;;4.28;;
39020;SDS011;25188;51.958;5.842;2023-06-26T02:57:44;10.43;;;4.03;;
39020;SDS011;25188;51.958;5.842;2023-06-26T03:00:10;9.73;;;3.63;;
39020;SDS011;25188;51.958;5.842;2023-06-26T03:02:37;8.20;;;3.72;;
39020;SDS011;25188;51.958;5.842;2023-06-26T03:05:02;8.15;;;4.30;;
39020;SDS011;25188;51.958;5.842;2023-06-26T03:07:29;9.63;;;4.32;;
39020;SDS011;25188;51.958;5.842;2023-06-26T03:09:55;8.55;;;3.42;;
39020;SDS011;25188;51.958;5.842;2023-06-26T03:12:20;9.93;;;4.38;;
39020;SDS011;25188;51.958;5.842;2023-06-26T03:14:46;10.07;;;4.00;;
39020;SDS011;25188;51.958;5.842;2023-06-26T03:17:12;9.73;;;3.50;;
39020;SDS011;25188;51.958;5.842;2023-06-26T03:19:37;8.07;;;3.83;;
39020;SDS011;25188;51.958;5.842;2023-06-26T03:22:03;9.32;;;4.00;;
39020;SDS011;25188;51.958;5.842;2023-06-26T03:24:29;9.15;;;4.43;;
39020;SDS011;25188;51.958;5.842;2023-06-26T03:26:54;12.32;;;4.57;;
39020;SDS011;25188;51.958;5.842;2023-06-26T03:29:20;11.85;;;4.07;;
39020;SDS011;25188;51.958;5.842;2023-06-26T03:31:45;13.00;;;4.30;;
39020;SDS011;25188;51.958;5.842;2023-06-26T03:34:12;8.43;;;4.15;;
39020;SDS011;25188;51.958;5.842;2023-06-26T03:36:38;13.23;;;4.68;;
39020;SDS011;25188;51.958;5.842;2023-06-26T03:39:03;16.08;;;4.13;;
39020;SDS011;25188;51.958;5.842;2023-06-26T03:41:29;9.40;;;4.88;;
39020;SDS011;25188;51.958;5.842;2023-06-26T03:43:55;12.65;;;3.95;;
39020;SDS011;25188;51.958;5.842;2023-06-26T03:46:21;10.98;;;4.82;;
39020;SDS011;25188;51.958;5.842;2023-06-26T03:48:47;10.43;;;4.43;;
39020;SDS011;25188;51.958;5.842;2023-06-26T03:51:13;11.35;;;4.05;;
39020;SDS011;25188;51.958;5.842;2023-06-26T03:53:39;12.02;;;4.22;;
39020;SDS011;25188;51.958;5.842;2023-06-26T03:56:04;11.77;;;5.13;;
39020;SDS011;25188;51.958;5.842;2023-06-26T03:58:30;13.40;;;4.43;;
39020;SDS011;25188;51.958;5.842;2023-06-26T04:00:56;11.77;;;4.70;;
39020;SDS011;25188;51.958;5.842;2023-06-26T04:03:22;8.73;;;4.43;;
39020;SDS011;25188;51.958;5.842;2023-06-26T04:05:48;10.45;;;4.00;;
39020;SDS011;25188;51.958;5.842;2023-06-26T04:08:14;14.50;;;4.47;;
39020;SDS011;25188;51.958;5.842;2023-06-26T04:10:40;15.10;;;4.60;;
39020;SDS011;25188;51.958;5.842;2023-06-26T04:13:05;11.48;;;3.92;;
39020;SDS011;25188;51.958;5.842;2023-06-26T04:15:32;12.68;;;4.68;;
39020;SDS011;25188;51.958;5.842;2023-06-26T04:17:57;14.25;;;5.00;;
39020;SDS011;25188;51.958;5.842;2023-06-26T04:20:23;11.98;;;5.45;;
39020;SDS011;25188;51.958;5.842;2023-06-26T04:22:49;20.50;;;5.78;;
39020;SDS011;25188;51.958;5.842;2023-06-26T04:25:14;21.33;;;5.43;;
39020;SDS011;25188;51.958;5.842;2023-06-26T04:27:40;15.35;;;5.22;;
39020;SDS011;25188;51.958;5.842;2023-06-26T04:30:06;12.73;;;5.70;;
39020;SDS011;25188;51.958;5.842;2023-06-26T04:32:32;16.23;;;4.50;;
39020;SDS011;25188;51.958;5.842;2023-06-26T04:34:58;13.88;;;5.45;;
39020;SDS011;25188;51.958;5.842;2023-06-26T04:37:24;12.25;;;5.15;;
39020;SDS011;25188;51.958;5.842;2023-06-26T04:39:49;13.55;;;5.20;;
39020;SDS011;25188;51.958;5.842;2023-06-26T04:42:15;14.20;;;5.10;;
39020;SDS011;25188;51.958;5.842;2023-06-26T04:44:41;16.55;;;5.90;;
39020;SDS011;25188;51.958;5.842;2023-06-26T04:47:07;13.65;;;4.88;;
39020;SDS011;25188;51.958;5.842;2023-06-26T04:49:33;14.60;;;4.85;;
39020;SDS011;25188;51.958;5.842;2023-06-26T04:51:59;15.18;;;5.43;;
39020;SDS011;25188;51.958;5.842;2023-06-26T04:54:25;13.93;;;5.80;;
39020;SDS011;25188;51.958;5.842;2023-06-26T04:56:52;15.85;;;5.88;;
39020;SDS011;25188;51.958;5.842;2023-06-26T04:59:17;20.80;;;5.13;;
39020;SDS011;25188;51.958;5.842;2023-06-26T05:01:43;14.63;;;5.28;;
39020;SDS011;25188;51.958;5.842;2023-06-26T05:04:12;15.40;;;5.43;;
39020;SDS011;25188;51.958;5.842;2023-06-26T05:06:40;17.80;;;5.60;;
39020;SDS011;25188;51.958;5.842;2023-06-26T05:09:06;19.45;;;5.35;;
39020;SDS011;25188;51.958;5.842;2023-06-26T05:11:31;17.58;;;5.70;;
39020;SDS011;25188;51.958;5.842;2023-06-26T05:13:57;13.05;;;4.68;;
39020;SDS011;25188;51.958;5.842;2023-06-26T05:16:24;16.42;;;5.32;;
39020;SDS011;25188;51.958;5.842;2023-06-26T05:18:50;14.60;;;5.25;;
39020;SDS011;25188;51.958;5.842;2023-06-26T05:21:15;14.23;;;5.45;;
39020;SDS011;25188;51.958;5.842;2023-06-26T05:23:42;14.57;;;5.00;;
39020;SDS011;25188;51.958;5.842;2023-06-26T05:26:09;13.93;;;4.65;;
39020;SDS011;25188;51.958;5.842;2023-06-26T05:28:37;19.17;;;5.63;;
39020;SDS011;25188;51.958;5.842;2023-06-26T05:31:03;16.23;;;5.15;;
39020;SDS011;25188;51.958;5.842;2023-06-26T05:33:30;14.25;;;5.05;;
39020;SDS011;25188;51.958;5.842;2023-06-26T05:35:59;15.63;;;5.60;;
39020;SDS011;25188;51.958;5.842;2023-06-26T05:38:27;17.13;;;5.22;;
39020;SDS011;25188;51.958;5.842;2023-06-26T05:40:53;16.45;;;5.40;;
39020;SDS011;25188;51.958;5.842;2023-06-26T05:43:19;16.67;;;5.57;;
39020;SDS011;25188;51.958;5.842;2023-06-26T05:45:46;13.57;;;4.43;;
39020;SDS011;25188;51.958;5.842;2023-06-26T05:48:13;10.52;;;3.80;;
39020;SDS011;25188;51.958;5.842;2023-06-26T05:50:39;11.00;;;3.90;;
39020;SDS011;25188;51.958;5.842;2023-06-26T05:53:07;9.40;;;4.50;;
39020;SDS011;25188;51.958;5.842;2023-06-26T05:55:33;11.20;;;4.40;;
39020;SDS011;25188;51.958;5.842;2023-06-26T05:57:59;14.55;;;4.50;;
39020;SDS011;25188;51.958;5.842;2023-06-26T06:00:27;14.93;;;4.53;;
39020;SDS011;25188;51.958;5.842;2023-06-26T06:02:53;11.43;;;4.10;;
39020;SDS011;25188;51.958;5.842;2023-06-26T06:05:25;10.35;;;3.67;;
39020;SDS011;25188;51.958;5.842;2023-06-26T06:07:51;11.18;;;3.88;;
39020;SDS011;25188;51.958;5.842;2023-06-26T06:10:17;10.40;;;4.13;;
39020;SDS011;25188;51.958;5.842;2023-06-26T06:12:42;10.43;;;3.25;;
39020;SDS011;25188;51.958;5.842;2023-06-26T06:15:08;10.43;;;3.08;;
39020;SDS011;25188;51.958;5.842;2023-06-26T06:17:34;10.05;;;2.97;;
39020;SDS011;25188;51.958;5.842;2023-06-26T06:19:59;9.13;;;3.15;;
39020;SDS011;25188;51.958;5.842;2023-06-26T06:22:25;8.25;;;2.67;;
39020;SDS011;25188;51.958;5.842;2023-06-26T06:24:51;8.05;;;2.10;;
39020;SDS011;25188;51.958;5.842;2023-06-26T06:27:16;9.05;;;2.53;;
39020;SDS011;25188;51.958;5.842;2023-06-26T06:29:42;8.40;;;2.53;;
39020;SDS011;25188;51.958;5.842;2023-06-26T06:32:08;5.65;;;1.95;;
39020;SDS011;25188;51.958;5.842;2023-06-26T06:34:34;7.43;;;2.38;;
39020;SDS011;25188;51.958;5.842;2023-06-26T06:37:00;7.60;;;1.88;;
39020;SDS011;25188;51.958;5.842;2023-06-26T06:39:28;6.90;;;2.20;;
39020;SDS011;25188;51.958;5.842;2023-06-26T06:41:54;6.63;;;2.38;;
39020;SDS011;25188;51.958;5.842;2023-06-26T06:44:20;6.88;;;1.75;;
39020;SDS011;25188;51.958;5.842;2023-06-26T06:46:46;5.68;;;1.80;;
39020;SDS011;25188;51.958;5.842;2023-06-26T06:49:11;6.85;;;1.70;;
39020;SDS011;25188;51.958;5.842;2023-06-26T06:51:37;4.35;;;1.55;;
39020;SDS011;25188;51.958;5.842;2023-06-26T06:54:03;4.93;;;1.45;;
39020;SDS011;25188;51.958;5.842;2023-06-26T06:56:28;4.70;;;1.88;;
39020;SDS011;25188;51.958;5.842;2023-06-26T06:58:54;9.10;;;2.58;;
39020;SDS011;25188;51.958;5.842;2023-06-26T07:01:20;8.75;;;2.30;;
39020;SDS011;25188;51.958;5.842;2023-06-26T07:03:45;7.03;;;2.30;;
39020;SDS011;25188;51.958;5.842;2023-06-26T07:06:11;6.18;;;1.92;;
39020;SDS011;25188;51.958;5.842;2023-06-26T07:08:36;7.70;;;2.42;;
39020;SDS011;25188;51.958;5.842;2023-06-26T07:11:02;6.57;;;2.08;;
39020;SDS011;25188;51.958;5.842;2023-06-26T07:13:28;3.95;;;1.77;;
39020;SDS011;25188;51.958;5.842;2023-06-26T07:15:53;7.55;;;2.13;;
39020;SDS011;25188;51.958;5.842;2023-06-26T07:18:19;6.28;;;1.80;;
39020;SDS011;25188;51.958;5.842;2023-06-26T07:20:44;7.20;;;2.42;;
39020;SDS011;25188;51.958;5.842;2023-06-26T07:23:10;6.15;;;2.20;;
39020;SDS011;25188;51.958;5.842;2023-06-26T07:25:36;7.03;;;2.13;;
39020;SDS011;25188;51.958;5.842;2023-06-26T07:28:05;6.47;;;1.85;;
39020;SDS011;25188;51.958;5.842;2023-06-26T07:33:01;7.78;;;1.70;;
39020;SDS011;25188;51.958;5.842;2023-06-26T07:35:27;4.80;;;1.83;;
39020;SDS011;25188;51.958;5.842;2023-06-26T07:37:52;5.13;;;1.77;;
39020;SDS011;25188;51.958;5.842;2023-06-26T07:40:18;8.82;;;2.20;;
39020;SDS011;25188;51.958;5.842;2023-06-26T07:42:44;7.07;;;2.38;;
39020;SDS011;25188;51.958;5.842;2023-06-26T07:45:09;8.82;;;3.13;;
39020;SDS011;25188;51.958;5.842;2023-06-26T07:47:37;5.82;;;2.30;;
39020;SDS011;25188;51.958;5.842;2023-06-26T07:50:03;7.47;;;2.38;;
39020;SDS011;25188;51.958;5.842;2023-06-26T07:52:29;5.50;;;2.30;;
39020;SDS011;25188;51.958;5.842;2023-06-26T07:54:55;6.47;;;2.03;;
39020;SDS011;25188;51.958;5.842;2023-06-26T07:57:21;3.55;;;1.80;;
39020;SDS011;25188;51.958;5.842;2023-06-26T07:59:47;4.93;;;1.88;;
39020;SDS011;25188;51.958;5.842;2023-06-26T08:02:13;8.73;;;2.47;;
39020;SDS011;25188;51.958;5.842;2023-06-26T08:04:38;4.22;;;1.90;;
39020;SDS011;25188;51.958;5.842;2023-06-26T08:07:04;4.43;;;1.85;;
39020;SDS011;25188;51.958;5.842;2023-06-26T08:09:30;4.43;;;1.77;;
39020;SDS011;25188;51.958;5.842;2023-06-26T08:11:56;5.28;;;1.92;;
39020;SDS011;25188;51.958;5.842;2023-06-26T08:14:22;6.55;;;2.17;;
39020;SDS011;25188;51.958;5.842;2023-06-26T08:16:48;5.32;;;1.98;;
39020;SDS011;25188;51.958;5.842;2023-06-26T08:19:15;5.68;;;2.13;;
39020;SDS011;25188;51.958;5.842;2023-06-26T08:21:42;5.53;;;2.00;;
39020;SDS011;25188;51.958;5.842;2023-06-26T08:24:09;4.97;;;2.00;;
39020;SDS011;25188;51.958;5.842;2023-06-26T08:26:35;5.10;;;2.05;;
39020;SDS011;25188;51.958;5.842;2023-06-26T08:29:01;8.10;;;2.55;;
39020;SDS011;25188;51.958;5.842;2023-06-26T08:31:33;5.85;;;2.15;;
39020;SDS011;25188;51.958;5.842;2023-06-26T08:34:00;5.82;;;2.25;;
39020;SDS011;25188;51.958;5.842;2023-06-26T08:36:26;7.70;;;1.92;;
39020;SDS011;25188;51.958;5.842;2023-06-26T08:38:51;8.02;;;2.70;;
39020;SDS011;25188;51.958;5.842;2023-06-26T08:41:17;9.15;;;2.50;;
39020;SDS011;25188;51.958;5.842;2023-06-26T08:43:43;4.72;;;2.25;;
39020;SDS011;25188;51.958;5.842;2023-06-26T08:46:08;5.47;;;2.33;;
39020;SDS011;25188;51.958;5.842;2023-06-26T08:48:34;8.95;;;2.33;;
39020;SDS011;25188;51.958;5.842;2023-06-26T08:51:05;6.30;;;1.45;;
39020;SDS011;25188;51.958;5.842;2023-06-26T08:53:50;6.93;;;1.93;;
39020;SDS011;25188;51.958;5.842;2023-06-26T08:56:22;8.23;;;1.83;;
39020;SDS011;25188;51.958;5.842;2023-06-26T08:58:49;7.60;;;1.90;;
39020;SDS011;25188;51.958;5.842;2023-06-26T09:01:15;5.97;;;2.20;;
39020;SDS011;25188;51.958;5.842;2023-06-26T09:03:41;7.10;;;2.15;;
39020;SDS011;25188;51.958;5.842;2023-06-26T09:06:07;5.78;;;1.60;;
39020;SDS011;25188;51.958;5.842;2023-06-26T09:08:33;2.63;;;1.13;;
39020;SDS011;25188;51.958;5.842;2023-06-26T09:10:59;2.65;;;0.90;;
39020;SDS011;25188;51.958;5.842;2023-06-26T09:13:25;4.75;;;1.13;;
39020;SDS011;25188;51.958;5.842;2023-06-26T09:15:52;7.78;;;1.20;;
39020;SDS011;25188;51.958;5.842;2023-06-26T09:18:20;5.82;;;1.40;;
39020;SDS011;25188;51.958;5.842;2023-06-26T09:20:46;3.03;;;1.00;;
39020;SDS011;25188;51.958;5.842;2023-06-26T09:23:13;2.38;;;0.60;;
39020;SDS011;25188;51.958;5.842;2023-06-26T09:25:39;5.10;;;0.70;;
39020;SDS011;25188;51.958;5.842;2023-06-26T09:28:05;5.07;;;0.70;;
39020;SDS011;25188;51.958;5.842;2023-06-26T09:30:31;3.00;;;1.02;;
39020;SDS011;25188;51.958;5.842;2023-06-26T09:33:00;4.82;;;1.02;;
39020;SDS011;25188;51.958;5.842;2023-06-26T09:38:11;4.70;;;0.70;;
39020;SDS011;25188;51.958;5.842;2023-06-26T09:40:37;3.90;;;0.98;;
39020;SDS011;25188;51.958;5.842;2023-06-26T09:43:04;3.00;;;0.70;;
39020;SDS011;25188;51.958;5.842;2023-06-26T09:45:33;3.47;;;0.70;;
39020;SDS011;25188;51.958;5.842;2023-06-26T09:48:01;6.07;;;0.98;;
39020;SDS011;25188;51.958;5.842;2023-06-26T09:50:28;6.28;;;1.00;;
39020;SDS011;25188;51.958;5.842;2023-06-26T09:52:55;5.32;;;0.80;;
39020;SDS011;25188;51.958;5.842;2023-06-26T09:55:20;2.25;;;0.63;;
39020;SDS011;25188;51.958;5.842;2023-06-26T09:57:47;4.75;;;0.77;;
39020;SDS011;25188;51.958;5.842;2023-06-26T10:00:16;4.03;;;0.65;;
39020;SDS011;25188;51.958;5.842;2023-06-26T10:02:42;3.85;;;0.90;;
39020;SDS011;25188;51.958;5.842;2023-06-26T10:05:10;6.07;;;0.82;;
39020;SDS011;25188;51.958;5.842;2023-06-26T10:07:36;4.25;;;0.82;;
39020;SDS011;25188;51.958;5.842;2023-06-26T10:10:03;5.32;;;1.00;;
39020;SDS011;25188;51.958;5.842;2023-06-26T10:12:32;4.22;;;1.00;;
39020;SDS011;25188;51.958;5.842;2023-06-26T10:14:59;3.20;;;0.63;;
39020;SDS011;25188;51.958;5.842;2023-06-26T10:17:28;2.80;;;1.15;;
39020;SDS011;25188;51.958;5.842;2023-06-26T10:19:58;2.70;;;0.90;;
39020;SDS011;25188;51.958;5.842;2023-06-26T10:22:27;3.80;;;0.52;;
39020;SDS011;25188;51.958;5.842;2023-06-26T10:24:55;5.78;;;0.65;;
39020;SDS011;25188;51.958;5.842;2023-06-26T10:27:24;5.63;;;0.82;;
39020;SDS011;25188;51.958;5.842;2023-06-26T10:29:54;3.95;;;0.68;;
39020;SDS011;25188;51.958;5.842;2023-06-26T10:32:22;4.53;;;0.80;;
39020;SDS011;25188;51.958;5.842;2023-06-26T10:34:50;2.80;;;0.80;;
39020;SDS011;25188;51.958;5.842;2023-06-26T10:37:17;3.70;;;0.68;;
39020;SDS011;25188;51.958;5.842;2023-06-26T10:39:46;3.85;;;0.90;;
39020;SDS011;25188;51.958;5.842;2023-06-26T10:42:19;4.35;;;0.77;;
39020;SDS011;25188;51.958;5.842;2023-06-26T10:45:08;2.72;;;0.63;;
39020;SDS011;25188;51.958;5.842;2023-06-26T10:47:36;2.13;;;0.52;;
39020;SDS011;25188;51.958;5.842;2023-06-26T10:53:07;2.42;;;0.50;;
39020;SDS011;25188;51.958;5.842;2023-06-26T10:55:42;3.13;;;0.52;;
39020;SDS011;25188;51.958;5.842;2023-06-26T11:01:23;6.03;;;0.80;;
39020;SDS011;25188;51.958;5.842;2023-06-26T11:04:10;2.03;;;0.40;;
39020;SDS011;25188;51.958;5.842;2023-06-26T11:06:40;3.47;;;0.57;;
39020;SDS011;25188;51.958;5.842;2023-06-26T11:14:18;2.65;;;0.55;;
39020;SDS011;25188;51.958;5.842;2023-06-26T11:16:45;1.83;;;0.50;;
39020;SDS011;25188;51.958;5.842;2023-06-26T11:19:11;2.60;;;0.40;;
39020;SDS011;25188;51.958;5.842;2023-06-26T11:21:39;2.00;;;0.40;;
39020;SDS011;25188;51.958;5.842;2023-06-26T11:24:06;2.92;;;0.63;;
39020;SDS011;25188;51.958;5.842;2023-06-26T11:26:41;3.25;;;0.50;;
39020;SDS011;25188;51.958;5.842;2023-06-26T11:29:08;2.88;;;0.60;;
39020;SDS011;25188;51.958;5.842;2023-06-26T11:31:35;4.07;;;0.50;;
39020;SDS011;25188;51.958;5.842;2023-06-26T11:34:05;3.70;;;0.47;;
39020;SDS011;25188;51.958;5.842;2023-06-26T11:36:36;3.83;;;0.52;;
39020;SDS011;25188;51.958;5.842;2023-06-26T11:39:07;2.65;;;0.55;;
39020;SDS011;25188;51.958;5.842;2023-06-26T11:41:33;2.60;;;0.50;;
39020;SDS011;25188;51.958;5.842;2023-06-26T11:44:01;2.03;;;0.40;;
39020;SDS011;25188;51.958;5.842;2023-06-26T11:46:27;2.55;;;0.80;;
39020;SDS011;25188;51.958;5.842;2023-06-26T11:48:53;3.83;;;0.63;;
39020;SDS011;25188;51.958;5.842;2023-06-26T11:51:19;5.93;;;0.65;;
39020;SDS011;25188;51.958;5.842;2023-06-26T11:53:46;2.78;;;0.80;;
39020;SDS011;25188;51.958;5.842;2023-06-26T11:56:13;3.30;;;0.60;;
39020;SDS011;25188;51.958;5.842;2023-06-26T12:01:26;5.28;;;0.60;;
39020;SDS011;25188;51.958;5.842;2023-06-26T12:03:58;2.30;;;0.52;;
39020;SDS011;25188;51.958;5.842;2023-06-26T12:06:26;1.65;;;0.60;;
39020;SDS011;25188;51.958;5.842;2023-06-26T12:08:53;3.17;;;0.43;;
39020;SDS011;25188;51.958;5.842;2023-06-26T12:11:20;5.85;;;0.60;;
39020;SDS011;25188;51.958;5.842;2023-06-26T12:13:47;2.83;;;0.57;;
39020;SDS011;25188;51.958;5.842;2023-06-26T12:16:14;3.13;;;0.50;;
39020;SDS011;25188;51.958;5.842;2023-06-26T12:18:39;4.32;;;0.70;;
39020;SDS011;25188;51.958;5.842;2023-06-26T12:21:05;3.95;;;0.60;;
39020;SDS011;25188;51.958;5.842;2023-06-26T12:23:40;3.53;;;0.40;;
39020;SDS011;25188;51.958;5.842;2023-06-26T12:26:16;1.98;;;0.47;;
39020;SDS011;25188;51.958;5.842;2023-06-26T12:28:46;6.38;;;0.73;;
39020;SDS011;25188;51.958;5.842;2023-06-26T12:31:13;2.45;;;0.63;;
39020;SDS011;25188;51.958;5.842;2023-06-26T12:33:42;3.25;;;0.73;;
39020;SDS011;25188;51.958;5.842;2023-06-26T12:36:12;1.30;;;0.40;;
39020;SDS011;25188;51.958;5.842;2023-06-26T12:38:38;3.38;;;0.50;;
39020;SDS011;25188;51.958;5.842;2023-06-26T12:41:05;2.90;;;0.45;;
39020;SDS011;25188;51.958;5.842;2023-06-26T12:43:37;1.20;;;0.40;;
39020;SDS011;25188;51.958;5.842;2023-06-26T12:46:04;3.03;;;0.40;;
39020;SDS011;25188;51.958;5.842;2023-06-26T12:48:42;1.60;;;0.40;;
39020;SDS011;25188;51.958;5.842;2023-06-26T12:51:11;1.75;;;0.30;;
39020;SDS011;25188;51.958;5.842;2023-06-26T12:53:40;4.43;;;0.50;;
39020;SDS011;25188;51.958;5.842;2023-06-26T12:56:07;1.45;;;0.30;;
39020;SDS011;25188;51.958;5.842;2023-06-26T12:58:36;2.70;;;0.43;;
39020;SDS011;25188;51.958;5.842;2023-06-26T13:01:03;3.15;;;0.38;;
39020;SDS011;25188;51.958;5.842;2023-06-26T13:03:29;1.38;;;0.40;;
39020;SDS011;25188;51.958;5.842;2023-06-26T13:05:55;2.55;;;0.50;;
39020;SDS011;25188;51.958;5.842;2023-06-26T13:08:21;3.17;;;0.40;;
39020;SDS011;25188;51.958;5.842;2023-06-26T13:10:47;2.55;;;0.40;;
39020;SDS011;25188;51.958;5.842;2023-06-26T13:13:12;2.47;;;0.50;;
39020;SDS011;25188;51.958;5.842;2023-06-26T13:15:38;1.70;;;0.40;;
39020;SDS011;25188;51.958;5.842;2023-06-26T13:18:04;1.02;;;0.30;;
39020;SDS011;25188;51.958;5.842;2023-06-26T13:20:29;3.25;;;0.60;;
39020;SDS011;25188;51.958;5.842;2023-06-26T13:22:55;1.27;;;0.50;;
39020;SDS011;25188;51.958;5.842;2023-06-26T13:25:21;6.88;;;0.50;;
39020;SDS011;25188;51.958;5.842;2023-06-26T13:27:47;0.80;;;0.20;;
39020;SDS011;25188;51.958;5.842;2023-06-26T13:30:14;1.70;;;0.40;;
39020;SDS011;25188;51.958;5.842;2023-06-26T13:32:41;1.63;;;0.40;;
39020;SDS011;25188;51.958;5.842;2023-06-26T13:35:07;4.88;;;0.43;;
39020;SDS011;25188;51.958;5.842;2023-06-26T13:37:33;4.30;;;0.40;;
39020;SDS011;25188;51.958;5.842;2023-06-26T13:39:59;1.88;;;0.40;;
39020;SDS011;25188;51.958;5.842;2023-06-26T13:42:26;2.08;;;0.40;;
39020;SDS011;25188;51.958;5.842;2023-06-26T13:44:53;2.92;;;0.55;;
39020;SDS011;25188;51.958;5.842;2023-06-26T13:47:18;2.40;;;0.40;;
39020;SDS011;25188;51.958;5.842;2023-06-26T13:49:44;2.08;;;0.40;;
39020;SDS011;25188;51.958;5.842;2023-06-26T13:52:10;3.22;;;0.40;;
39020;SDS011;25188;51.958;5.842;2023-06-26T13:54:36;1.83;;;0.35;;
39020;SDS011;25188;51.958;5.842;2023-06-26T13:57:04;2.53;;;0.40;;
39020;SDS011;25188;51.958;5.842;2023-06-26T13:59:30;3.13;;;0.43;;
39020;SDS011;25188;51.958;5.842;2023-06-26T14:01:56;2.10;;;0.30;;
39020;SDS011;25188;51.958;5.842;2023-06-26T14:04:22;2.10;;;0.30;;
39020;SDS011;25188;51.958;5.842;2023-06-26T14:06:48;5.00;;;0.47;;
39020;SDS011;25188;51.958;5.842;2023-06-26T14:09:13;2.72;;;0.32;;
39020;SDS011;25188;51.958;5.842;2023-06-26T14:11:39;1.02;;;0.32;;
39020;SDS011;25188;51.958;5.842;2023-06-26T14:14:04;3.00;;;0.50;;
39020;SDS011;25188;51.958;5.842;2023-06-26T14:16:30;2.65;;;0.40;;
39020;SDS011;25188;51.958;5.842;2023-06-26T14:18:56;2.70;;;0.50;;
39020;SDS011;25188;51.958;5.842;2023-06-26T14:21:22;1.25;;;0.40;;
39020;SDS011;25188;51.958;5.842;2023-06-26T14:23:48;2.17;;;0.43;;
39020;SDS011;25188;51.958;5.842;2023-06-26T14:26:14;1.45;;;0.40;;
39020;SDS011;25188;51.958;5.842;2023-06-26T14:28:39;2.17;;;0.40;;
39020;SDS011;25188;51.958;5.842;2023-06-26T14:31:05;4.07;;;0.40;;
39020;SDS011;25188;51.958;5.842;2023-06-26T14:33:31;2.67;;;0.45;;
39020;SDS011;25188;51.958;5.842;2023-06-26T14:35:57;1.63;;;0.40;;
39020;SDS011;25188;51.958;5.842;2023-06-26T14:38:22;5.63;;;0.55;;
39020;SDS011;25188;51.958;5.842;2023-06-26T14:40:48;1.15;;;0.40;;
39020;SDS011;25188;51.958;5.842;2023-06-26T14:43:14;2.63;;;0.40;;
39020;SDS011;25188;51.958;5.842;2023-06-26T14:45:39;1.83;;;0.40;;
39020;SDS011;25188;51.958;5.842;2023-06-26T14:48:05;2.67;;;0.30;;
39020;SDS011;25188;51.958;5.842;2023-06-26T14:50:31;2.35;;;0.40;;
39020;SDS011;25188;51.958;5.842;2023-06-26T14:52:56;1.05;;;0.30;;
39020;SDS011;25188;51.958;5.842;2023-06-26T14:55:22;2.20;;;0.40;;
39020;SDS011;25188;51.958;5.842;2023-06-26T14:57:48;2.78;;;0.55;;
39020;SDS011;25188;51.958;5.842;2023-06-26T15:00:14;2.17;;;0.40;;
39020;SDS011;25188;51.958;5.842;2023-06-26T15:02:40;1.20;;;0.32;;
39020;SDS011;25188;51.958;5.842;2023-06-26T15:05:06;2.67;;;0.30;;
39020;SDS011;25188;51.958;5.842;2023-06-26T15:07:32;2.55;;;0.30;;